Time;durP1;ratioP1;P1;durP2;ratioP2;P2;SDS_P1;SDS_P2;PMS_P1;PMS_P2;Temp;Humidity;BMP_temperature;BMP_pressure;BME280_temperature;BME280_humidity;BME280_pressure;Samples;Min_cycle;Max_cycle;Signal;HPM_P1;HPM_P2
2023/04/25 00:00:13;;;;;;;4.50;4.00;;;;;;;5.51;100.00;95574.00;7396326;19;20432;-75
2023/04/25 00:02:41;;;;;;;4.30;3.90;;;;;;;5.41;100.00;95553.34;7394939;19;20393;-75
2023/04/25 00:05:08;;;;;;;6.10;5.60;;;;;;;5.56;100.00;95579.84;7395735;19;20437;-75
2023/04/25 00:07:36;;;;;;;4.37;3.93;;;;;;;5.43;100.00;95572.16;7396954;19;20432;-75
2023/04/25 00:10:03;;;;;;;4.60;4.20;;;;;;;5.44;100.00;95563.22;7397674;19;20393;-75
2023/04/25 00:12:30;;;;;;;6.30;4.73;;;;;;;5.04;100.00;95535.38;7396686;19;20344;-75
2023/04/25 00:14:57;;;;;;;4.97;4.10;;;;;;;4.98;100.00;95557.56;7395744;19;20964;-75
2023/04/25 00:17:24;;;;;;;4.80;4.40;;;;;;;5.21;100.00;95558.19;7395410;19;20404;-75
2023/04/25 00:19:52;;;;;;;6.33;3.90;;;;;;;5.28;100.00;95552.44;7396703;19;20412;-75
2023/04/25 00:22:19;;;;;;;5.00;4.50;;;;;;;5.17;100.00;95525.03;7395476;19;20404;-76
2023/04/25 00:24:46;;;;;;;5.10;4.60;;;;;;;5.25;100.00;95519.00;7395885;19;20408;-76
2023/04/25 00:27:14;;;;;;;4.90;4.47;;;;;;;5.31;100.00;95523.00;7394862;19;20403;-76
2023/04/25 00:29:41;;;;;;;5.27;4.80;;;;;;;5.27;100.00;95550.91;7396257;19;20421;-76
2023/04/25 00:32:08;;;;;;;6.03;4.43;;;;;;;5.10;100.00;95530.75;7394575;19;20357;-75
2023/04/25 00:34:35;;;;;;;5.40;4.90;;;;;;;5.35;100.00;95534.41;7395695;19;21040;-76
2023/04/25 00:37:02;;;;;;;4.33;3.93;;;;;;;5.49;100.00;95550.72;7394991;19;20397;-75
2023/04/25 00:39:29;;;;;;;4.03;3.73;;;;;;;5.60;100.00;95553.75;7396465;19;20377;-76
2023/04/25 00:41:57;;;;;;;4.63;4.23;;;;;;;5.60;100.00;95538.03;7394434;19;20936;-75
2023/04/25 00:44:24;;;;;;;4.30;3.90;;;;;;;5.57;100.00;95528.19;7396257;19;20406;-76
2023/04/25 00:46:52;;;;;;;4.80;4.30;;;;;;;5.71;100.00;95541.84;7394790;19;20404;-76
2023/04/25 00:49:19;;;;;;;4.90;4.50;;;;;;;5.65;100.00;95522.16;7395979;19;20476;-76
2023/04/25 00:51:47;;;;;;;5.40;4.63;;;;;;;5.57;100.00;95542.06;7393081;19;20409;-76
2023/04/25 00:54:14;;;;;;;5.27;4.77;;;;;;;5.28;100.00;95515.75;7392648;19;20373;-75
2023/04/25 00:56:41;;;;;;;5.67;5.17;;;;;;;5.35;100.00;95521.31;7394461;19;20717;-75
2023/04/25 00:59:09;;;;;;;5.10;4.70;;;;;;;5.13;100.00;95511.03;7392931;19;20369;-76
2023/04/25 01:01:39;;;;;;;5.30;4.90;;;;;;;5.04;100.00;95501.31;7396887;19;20381;-76
2023/04/25 01:04:06;;;;;;;6.40;5.80;;;;;;;5.05;100.00;95508.09;7400532;19;20360;-75
2023/04/25 01:06:34;;;;;;;4.63;4.23;;;;;;;5.16;100.00;95507.78;7401862;19;20924;-76
2023/04/25 01:09:01;;;;;;;4.63;4.30;;;;;;;5.38;100.00;95525.94;7400420;19;20412;-76
2023/04/25 01:11:28;;;;;;;4.73;4.33;;;;;;;5.52;100.00;95520.50;7400697;19;20352;-75
2023/04/25 01:13:55;;;;;;;4.83;4.30;;;;;;;5.34;100.00;95502.19;7400901;19;20697;-75
2023/04/25 01:16:26;;;;;;;4.90;4.47;;;;;;;5.44;100.00;95514.19;7412812;19;20412;-76
2023/04/25 01:18:54;;;;;;;5.00;4.57;;;;;;;5.07;100.00;95473.72;7422519;19;20376;-75
2023/04/25 01:21:21;;;;;;;4.80;4.40;;;;;;;5.10;100.00;95477.59;7426773;19;20409;-75
2023/04/25 01:23:48;;;;;;;12.70;4.87;;;;;;;5.30;100.00;95485.53;7418688;19;20361;-76
2023/04/25 01:26:16;;;;;;;5.40;5.00;;;;;;;5.46;100.00;95491.03;7401944;19;20424;-75
2023/04/25 01:28:44;;;;;;;5.73;4.20;;;;;;;5.37;100.00;95479.06;7403480;19;20360;-76
2023/04/25 01:31:11;;;;;;;5.27;4.87;;;;;;;5.69;100.00;95517.03;7401242;19;20377;-76
2023/04/25 01:33:39;;;;;;;4.60;4.13;;;;;;;5.59;100.00;95500.56;7400929;19;20389;-76
2023/04/25 01:36:06;;;;;;;6.10;5.37;;;;;;;5.54;100.00;95492.09;7399648;19;20987;-75
2023/04/25 01:38:35;;;;;;;5.17;4.80;;;;;;;5.52;100.00;95502.91;7401254;19;20373;-75
2023/04/25 01:41:02;;;;;;;4.87;4.47;;;;;;;5.03;100.00;95470.19;7401895;19;20396;-75
2023/04/25 01:43:29;;;;;;;5.93;4.53;;;;;;;5.38;100.00;95501.56;7400280;19;20368;-76
2023/04/25 01:45:56;;;;;;;5.97;5.57;;;;;;;5.28;100.00;95485.09;7400007;19;20424;-75
2023/04/25 01:48:24;;;;;;;4.70;4.30;;;;;;;5.69;100.00;95514.41;7400331;19;20757;-75
2023/04/25 01:50:50;;;;;;;5.50;5.00;;;;;;;5.65;100.00;95495.91;7400959;19;20370;-75
2023/04/25 01:53:17;;;;;;;5.03;4.53;;;;;;;5.61;100.00;95485.31;7400913;19;20384;-75
2023/04/25 01:55:45;;;;;;;5.60;4.47;;;;;;;6.02;100.00;95510.13;7399977;19;20442;-75
2023/04/25 01:58:15;;;;;;;4.73;4.40;;;;;;;6.14;100.00;95525.97;7400008;19;20364;-76
2023/04/25 02:01:05;;;;;;;5.83;4.87;;;;;;;6.07;100.00;95507.31;7399834;19;20381;-75
2023/04/25 02:03:39;;;;;;;5.00;4.60;;;;;;;6.19;100.00;95525.78;7401288;19;20403;-76
2023/04/25 02:06:13;;;;;;;4.73;4.33;;;;;;;6.11;100.00;95521.34;7397208;19;20424;-75
2023/04/25 02:08:43;;;;;;;6.20;5.70;;;;;;;5.95;100.00;95501.22;7401507;19;20549;-75
2023/04/25 02:11:11;;;;;;;5.33;4.10;;;;;;;6.01;100.00;95505.19;7398770;19;20388;-75
2023/04/25 02:13:44;;;;;;;4.83;4.27;;;;;;;6.11;100.00;95526.59;7396629;19;20380;-75
2023/04/25 02:16:31;;;;;;;5.50;5.00;;;;;;;5.79;100.00;95478.13;7401519;19;20393;-75
2023/04/25 02:19:00;;;;;;;4.70;4.30;;;;;;;6.08;100.00;95523.84;7399285;19;20439;-75
2023/04/25 02:21:30;;;;;;;4.20;3.83;;;;;;;5.69;100.00;95488.94;7400913;19;20385;-75
2023/04/25 02:23:57;;;;;;;4.77;4.30;;;;;;;5.89;100.00;95511.88;7399407;19;20741;-76
2023/04/25 02:26:27;;;;;;;5.00;4.60;;;;;;;6.00;100.00;95506.28;7400435;19;20385;-76
2023/04/25 02:28:53;;;;;;;4.70;4.30;;;;;;;5.79;100.00;95475.50;7397816;19;20412;-76
2023/04/25 02:31:20;;;;;;;5.23;4.80;;;;;;;6.18;100.00;95512.97;7405047;19;20389;-76
2023/04/25 02:33:47;;;;;;;6.00;4.00;;;;;;;6.19;100.00;95507.41;7402373;19;20380;-76
2023/04/25 02:36:15;;;;;;;14.03;4.47;;;;;;;6.14;100.00;95491.06;7398799;19;20429;-76
2023/04/25 02:38:41;;;;;;;5.53;5.00;;;;;;;5.97;100.00;95470.19;7400179;19;20345;-76
2023/04/25 02:41:08;;;;;;;5.20;4.77;;;;;;;5.87;100.00;95460.78;7401599;19;20381;-76
2023/04/25 02:43:35;;;;;;;6.70;3.80;;;;;;;6.10;100.00;95505.91;7398673;19;20461;-76
2023/04/25 02:46:02;;;;;;;4.80;4.33;;;;;;;5.98;100.00;95479.59;7395644;19;20444;-76
2023/04/25 02:48:29;;;;;;;5.50;4.60;;;;;;;5.89;100.00;95448.16;7398503;19;20378;-76
2023/04/25 02:50:56;;;;;;;5.13;4.63;;;;;;;5.91;100.00;95457.25;7396776;19;20406;-76
2023/04/25 02:53:23;;;;;;;5.27;4.87;;;;;;;5.79;100.00;95438.78;7398533;19;20361;-76
2023/04/25 02:55:52;;;;;;;5.27;4.77;;;;;;;5.92;100.00;95460.66;7395221;19;20425;-76
2023/04/25 02:58:19;;;;;;;6.00;5.20;;;;;;;6.10;100.00;95487.53;7398162;19;20785;-76
2023/04/25 03:00:49;;;;;;;5.10;4.70;;;;;;;6.10;100.00;95488.31;7396744;19;20924;-77
2023/04/25 03:03:21;;;;;;;4.60;4.20;;;;;;;6.00;100.00;95465.06;7398254;19;20361;-76
2023/04/25 03:05:50;;;;;;;5.77;5.10;;;;;;;6.14;100.00;95486.63;7395547;19;20433;-76
2023/04/25 03:08:22;;;;;;;5.30;4.80;;;;;;;5.87;100.00;95447.66;7398501;19;20408;-76
2023/04/25 03:10:51;;;;;;;7.90;4.37;;;;;;;6.15;100.00;95474.25;7396586;19;20404;-76
2023/04/25 03:13:18;;;;;;;5.90;5.30;;;;;;;6.16;100.00;95473.19;7398592;19;20368;-76
2023/04/25 03:15:45;;;;;;;9.40;8.50;;;;;;;5.98;100.00;95451.50;7396808;19;20532;-76
2023/04/25 03:18:12;;;;;;;7.40;6.40;;;;;;;5.84;100.00;95424.72;7398411;19;20929;-76
2023/04/25 03:20:41;;;;;;;5.60;4.57;;;;;;;6.08;100.00;95461.63;7396747;19;20409;-76
2023/04/25 03:23:08;;;;;;;5.70;5.20;;;;;;;6.16;100.00;95478.41;7398622;19;20382;-76
2023/04/25 03:25:37;;;;;;;5.47;4.83;;;;;;;5.87;100.00;95448.44;7395254;19;20411;-76
2023/04/25 03:28:04;;;;;;;5.30;4.70;;;;;;;5.88;100.00;95454.47;7398646;19;20385;-76
2023/04/25 03:30:32;;;;;;;5.50;5.00;;;;;;;5.51;100.00;95391.28;7396809;19;20728;-76
2023/04/25 03:32:59;;;;;;;4.83;4.43;;;;;;;5.90;100.00;95466.22;7396215;19;20410;-77
2023/04/25 03:35:26;;;;;;;5.60;5.10;;;;;;;5.66;100.00;95428.50;7395990;19;20489;-76
2023/04/25 03:37:53;;;;;;;8.30;5.17;;;;;;;5.60;100.00;95417.41;7398329;19;20900;-76
2023/04/25 03:40:25;;;;;;;7.03;5.43;;;;;;;5.83;100.00;95444.16;7396853;19;20889;-76
2023/04/25 03:43:19;;;;;;;6.37;5.77;;;;;;;5.70;100.00;95421.53;7397071;19;20401;-76
2023/04/25 03:45:54;;;;;;;5.43;5.03;;;;;;;5.92;100.00;95460.66;7396005;19;20498;-76
2023/04/25 03:48:24;;;;;;;9.83;5.77;;;;;;;5.81;100.00;95433.97;7396556;19;20389;-76
2023/04/25 03:50:54;;;;;;;5.83;5.23;;;;;;;6.04;100.00;95457.34;7397867;19;20372;-76
2023/04/25 03:53:20;;;;;;;6.50;4.63;;;;;;;5.72;100.00;95419.38;7396201;19;20404;-76
2023/04/25 03:56:06;;;;;;;8.80;5.23;;;;;;;5.63;100.00;95416.81;7394657;19;20832;-76
2023/04/25 03:58:35;;;;;;;6.90;5.13;;;;;;;5.79;100.00;95423.03;7397608;19;20931;-76
2023/04/25 04:01:07;;;;;;;7.27;6.57;;;;;;;5.78;100.00;95418.88;7398527;19;20400;-76
2023/04/25 04:03:36;;;;;;;27.17;18.80;;;;;;;5.62;100.00;95410.81;7398466;19;20376;-76
2023/04/25 04:06:05;;;;;;;67.00;38.27;;;;;;;5.93;100.00;95460.34;7396246;19;20441;-76
2023/04/25 04:08:36;;;;;;;9.53;8.13;;;;;;;5.70;100.00;95424.16;7398848;19;20395;-76
2023/04/25 04:11:03;;;;;;;8.83;7.93;;;;;;;5.70;100.00;95418.94;7396182;19;20409;-76
2023/04/25 04:13:31;;;;;;;8.73;5.63;;;;;;;5.86;100.00;95441.66;7397741;19;20379;-76
2023/04/25 04:15:57;;;;;;;6.17;5.67;;;;;;;5.87;100.00;95445.81;7395179;19;20964;-76
2023/04/25 04:18:25;;;;;;;5.90;5.40;;;;;;;5.81;100.00;95422.72;7398570;19;20400;-76
2023/04/25 04:20:52;;;;;;;6.20;5.60;;;;;;;5.73;100.00;95420.91;7396465;19;20389;-76
2023/04/25 04:23:20;;;;;;;4.80;4.40;;;;;;;5.84;100.00;95429.94;7398260;19;20372;-76
2023/04/25 04:25:47;;;;;;;5.90;5.27;;;;;;;6.00;100.00;95459.03;7395155;19;20432;-76
2023/04/25 04:28:27;;;;;;;5.70;5.10;;;;;;;5.79;100.00;95436.16;7394536;19;20373;-75
2023/04/25 04:31:05;;;;;;;5.20;4.73;;;;;;;5.97;100.00;95455.22;7396049;19;20419;-75
2023/04/25 04:33:33;;;;;;;5.60;4.87;;;;;;;5.86;100.00;95449.53;7394592;19;20908;-75
2023/04/25 04:36:03;;;;;;;5.80;5.20;;;;;;;5.87;100.00;95458.94;7395029;19;20432;-75
2023/04/25 04:38:32;;;;;;;6.47;5.50;;;;;;;5.58;100.00;95404.63;7393687;19;20409;-75
2023/04/25 04:41:02;;;;;;;6.20;5.20;;;;;;;5.77;100.00;95429.69;7395890;19;20783;-75
2023/04/25 04:44:00;;;;;;;6.13;5.53;;;;;;;5.78;100.00;95437.25;7394084;19;20392;-75
2023/04/25 04:46:41;;;;;;;6.60;5.50;;;;;;;5.68;100.00;95423.72;7394528;19;20430;-75
2023/04/25 04:49:32;;;;;;;7.37;5.20;;;;;;;5.46;100.00;95393.28;7393800;19;20401;-75
2023/04/25 04:52:19;;;;;;;4.70;4.30;;;;;;;5.93;100.00;95454.31;7396605;19;20371;-74
2023/04/25 04:54:52;;;;;;;7.30;5.00;;;;;;;5.97;100.00;95457.06;7394147;19;20408;-75
2023/04/25 04:57:32;;;;;;;8.30;6.03;;;;;;;5.86;100.00;95444.28;7393693;19;20486;-75
2023/04/25 05:00:23;;;;;;;10.63;6.97;;;;;;;6.05;100.00;95456.25;7395183;19;20412;-75
2023/04/25 05:02:55;;;;;;;6.00;5.40;;;;;;;6.20;100.00;95464.34;7393165;19;20879;-75
2023/04/25 05:05:39;;;;;;;6.23;5.70;;;;;;;6.15;100.00;95464.53;7391793;19;20441;-75
2023/04/25 05:08:32;;;;;;;6.87;6.27;;;;;;;6.23;100.00;95466.31;7393466;19;20383;-75
2023/04/25 05:11:22;;;;;;;6.70;6.00;;;;;;;6.35;100.00;95468.25;7394187;19;20392;-75
2023/04/25 05:14:03;;;;;;;6.30;5.70;;;;;;;6.46;100.00;95471.25;7393673;19;20372;-75
2023/04/25 05:16:53;;;;;;;8.10;6.60;;;;;;;6.27;100.00;95463.81;7393142;19;21002;-75
2023/04/25 05:19:54;;;;;;;6.73;6.13;;;;;;;6.18;100.00;95463.13;7395546;19;20377;-75
2023/04/25 05:22:43;;;;;;;8.57;6.30;;;;;;;6.20;100.00;95455.69;7394873;19;20397;-75
2023/04/25 05:25:15;;;;;;;6.80;5.93;;;;;;;5.77;100.00;95401.63;7392073;19;20444;-75
2023/04/25 05:27:48;;;;;;;7.03;6.33;;;;;;;6.09;100.00;95457.16;7394619;19;20363;-75
2023/04/25 05:30:34;;;;;;;7.47;6.77;;;;;;;6.15;100.00;95458.50;7394672;19;20358;-75
2023/04/25 05:33:08;;;;;;;7.60;6.43;;;;;;;5.93;100.00;95422.84;7390880;19;20399;-76
2023/04/25 05:35:37;;;;;;;7.63;6.70;;;;;;;6.06;100.00;95460.41;7392126;19;20440;-76
2023/04/25 05:38:04;;;;;;;7.77;7.07;;;;;;;5.81;100.00;95430.59;7392385;19;20407;-77
2023/04/25 05:40:50;;;;;;;7.07;6.37;;;;;;;5.83;100.00;95442.28;7394627;19;20385;-76
2023/04/25 05:43:36;;;;;;;8.10;6.80;;;;;;;5.91;100.00;95464.38;7395672;19;20391;-77
2023/04/25 05:46:19;;;;;;;9.63;7.33;;;;;;;5.69;100.00;95423.41;7390575;19;20936;-76
2023/04/25 05:49:06;;;;;;;9.67;6.60;;;;;;;5.63;100.00;95429.91;7397348;19;20392;-76
2023/04/25 05:51:40;;;;;;;9.40;7.43;;;;;;;5.77;100.00;95448.06;7400613;19;20360;-77
2023/04/25 05:54:25;;;;;;;7.70;6.90;;;;;;;5.90;100.00;95466.22;7399655;19;20436;-77
2023/04/25 05:56:53;;;;;;;8.03;6.60;;;;;;;5.90;100.00;95470.69;7401250;19;20769;-76
2023/04/25 05:59:20;;;;;;;9.30;6.67;;;;;;;5.48;100.00;95419.97;7401424;19;20373;-76
2023/04/25 06:01:47;;;;;;;6.53;5.93;;;;;;;5.73;100.00;95455.75;7401480;19;20731;-75
2023/04/25 06:04:14;;;;;;;7.13;5.53;;;;;;;5.73;100.00;95465.50;7399623;19;20388;-75
2023/04/25 06:06:41;;;;;;;7.30;6.60;;;;;;;5.62;100.00;95444.88;7401182;19;20380;-75
2023/04/25 06:09:08;;;;;;;10.03;6.07;;;;;;;5.81;100.00;95451.56;7399659;19;20387;-74
2023/04/25 06:11:35;;;;;;;6.33;4.87;;;;;;;6.05;100.00;95483.25;7401599;19;20447;-75
2023/04/25 06:14:05;;;;;;;9.90;5.37;;;;;;;5.92;100.00;95466.66;7399711;19;20365;-75
2023/04/25 06:16:34;;;;;;;14.77;11.30;;;;;;;6.03;100.00;95479.44;7400854;19;20388;-75
2023/04/25 06:19:01;;;;;;;5.70;3.90;;;;;;;5.64;100.00;95447.19;7399521;19;20349;-75
2023/04/25 06:21:28;;;;;;;29.73;20.30;;;;;;;6.01;100.00;95474.50;7401202;19;20356;-75
2023/04/25 06:23:55;;;;;;;7.80;6.03;;;;;;;5.68;100.00;95450.72;7399370;19;20775;-75
2023/04/25 06:26:23;;;;;;;5.07;4.57;;;;;;;5.64;100.00;95439.31;7398668;19;20440;-75
2023/04/25 06:28:49;;;;;;;4.30;3.90;;;;;;;5.90;100.00;95481.97;7399370;19;20392;-75
2023/04/25 06:31:16;;;;;;;2.93;2.73;;;;;;;5.69;100.00;95494.19;7400663;19;20720;-75
2023/04/25 06:33:45;;;;;;;3.17;2.97;;;;;;;5.42;100.00;95465.78;7397192;19;20388;-75
2023/04/25 06:36:12;;;;;;;2.60;2.40;;;;;;;5.77;100.00;95496.03;7398322;19;20972;-75
2023/04/25 06:38:40;;;;;;;2.83;2.63;;;;;;;5.57;100.00;95468.66;7399039;19;20365;-75
2023/04/25 06:41:07;;;;;;;3.73;3.43;;;;;;;5.50;100.00;95491.19;7400660;19;20377;-75
2023/04/25 06:43:36;;;;;;;3.27;2.60;;;;;;;5.40;100.00;95478.44;7400715;19;20805;-74
2023/04/25 06:46:16;;;;;;;3.30;2.90;;;;;;;5.10;100.00;95478.34;7395516;19;20421;-74
2023/04/25 06:48:46;;;;;;;3.37;2.50;;;;;;;5.29;100.00;95499.72;7414581;19;20377;-75
2023/04/25 06:51:13;;;;;;;2.80;1.80;;;;;;;5.04;100.00;95500.53;7431675;19;20432;-75
2023/04/25 06:53:41;;;;;;;1.80;1.57;;;;;;;4.40;100.00;95489.94;7429197;19;20413;-74
2023/04/25 06:56:14;;;;;;;2.87;2.00;;;;;;;4.29;100.00;95475.63;7407402;19;20453;-74
2023/04/25 06:58:51;;;;;;;2.10;2.00;;;;;;;4.65;100.00;95511.97;7400314;19;20384;-74
2023/04/25 07:01:30;;;;;;;2.50;1.63;;;;;;;4.35;100.00;95503.94;7399768;19;20395;-74
2023/04/25 07:03:59;;;;;;;2.60;1.50;;;;;;;4.43;100.00;95513.66;7396980;19;20396;-74
2023/04/25 07:06:27;;;;;;;1.90;1.70;;;;;;;4.37;100.00;95514.09;7396259;19;20523;-74
2023/04/25 07:08:55;;;;;;;1.87;1.77;;;;;;;4.42;100.00;95490.41;7397329;19;20772;-74
2023/04/25 07:11:23;;;;;;;1.43;1.33;;;;;;;4.62;100.00;95517.81;7398818;19;20396;-74
2023/04/25 07:13:49;;;;;;;2.70;1.40;;;;;;;4.62;100.00;95515.97;7395606;19;20373;-74
2023/04/25 07:16:17;;;;;;;2.57;1.60;;;;;;;4.84;100.00;95503.81;7396575;19;20424;-74
2023/04/25 07:18:45;;;;;;;2.63;1.70;;;;;;;4.65;100.00;95494.41;7396593;19;20373;-74
2023/04/25 07:21:13;;;;;;;2.23;1.57;;;;;;;4.83;100.00;95512.75;7398577;19;20385;-74
2023/04/25 07:23:42;;;;;;;1.70;1.60;;;;;;;4.87;100.00;95505.81;7396850;19;20924;-74
2023/04/25 07:26:14;;;;;;;2.43;2.23;;;;;;;4.98;100.00;95488.69;7396690;19;20428;-74
2023/04/25 07:29:01;;;;;;;1.60;1.50;;;;;;;5.31;100.00;95502.03;7397658;19;20372;-75
2023/04/25 07:31:28;;;;;;;1.80;1.70;;;;;;;5.40;100.00;95502.00;7396035;19;20703;-74
2023/04/25 07:33:55;;;;;;;2.13;2.03;;;;;;;5.49;100.00;95489.66;7396136;19;20414;-74
2023/04/25 07:36:21;;;;;;;2.87;2.67;;;;;;;5.84;100.00;95525.13;7393843;19;20762;-74
2023/04/25 07:38:49;;;;;;;2.23;2.13;;;;;;;5.86;100.00;95520.34;7397195;19;20389;-74
2023/04/25 07:41:17;;;;;;;1.67;1.57;;;;;;;5.73;100.00;95507.44;7395802;19;20376;-74
2023/04/25 07:43:44;;;;;;;2.27;2.10;;;;;;;6.08;100.00;95529.09;7397415;19;20429;-74
2023/04/25 07:46:11;;;;;;;2.00;1.77;;;;;;;6.22;100.00;95517.28;7394334;19;20421;-74
2023/04/25 07:48:38;;;;;;;1.60;1.50;;;;;;;6.31;100.00;95519.84;7397231;19;20380;-74
2023/04/25 07:51:05;;;;;;;2.33;2.13;;;;;;;6.12;100.00;95535.22;7395937;19;20440;-74
2023/04/25 07:53:34;;;;;;;2.40;2.20;;;;;;;6.37;100.00;95544.06;7395636;19;20807;-74
2023/04/25 07:56:06;;;;;;;3.10;2.90;;;;;;;5.71;100.00;95526.13;7394029;19;20831;-74
2023/04/25 07:58:36;;;;;;;3.47;3.17;;;;;;;5.82;100.00;95545.69;7397399;19;20908;-74
2023/04/25 08:01:04;;;;;;;3.80;3.40;;;;;;;6.31;100.00;95537.47;7395999;19;20360;-74
2023/04/25 08:03:34;;;;;;;3.43;3.17;;;;;;;6.67;100.00;95548.19;7399147;19;20408;-74
2023/04/25 08:06:05;;;;;;;4.13;3.43;;;;;;;6.33;100.00;95501.94;7394727;19;20421;-74
2023/04/25 08:08:42;;;;;;;3.30;3.00;;;;;;;6.68;100.00;95565.50;7397536;19;20383;-74
2023/04/25 08:11:12;;;;;;;2.90;2.70;;;;;;;6.62;100.00;95564.13;7396326;19;20750;-74
2023/04/25 08:13:39;;;;;;;4.70;4.10;;;;;;;6.13;100.00;95529.66;7392209;19;20380;-73
2023/04/25 08:16:06;;;;;;;4.40;4.00;;;;;;;6.57;100.00;95559.06;7395973;19;20496;-74
2023/04/25 08:18:34;;;;;;;4.43;3.70;;;;;;;6.41;100.00;95529.19;7394885;19;20400;-74
2023/04/25 08:21:01;;;;;;;3.60;3.30;;;;;;;6.75;100.00;95573.63;7393082;19;20380;-74
2023/04/25 08:23:29;;;;;;;3.63;3.33;;;;;;;6.65;100.00;95579.25;7394501;19;20964;-74
2023/04/25 08:26:10;;;;;;;3.73;3.43;;;;;;;6.55;100.00;95549.97;7395025;19;20964;-74
2023/04/25 08:28:39;;;;;;;3.80;3.50;;;;;;;6.68;100.00;95576.00;7393264;19;20436;-74
2023/04/25 08:31:06;;;;;;;6.50;4.13;;;;;;;6.38;100.00;95583.09;7396442;19;20956;-74
2023/04/25 08:33:45;;;;;;;4.10;3.70;;;;;;;6.51;100.00;95583.97;7414487;19;20384;-74
2023/04/25 08:36:27;;;;;;;5.20;4.50;;;;;;;6.50;100.00;95561.44;7428023;19;20420;-76
2023/04/25 08:39:16;;;;;;;4.67;3.40;;;;;;;6.43;100.00;95590.06;7432220;19;20392;-75
2023/04/25 08:41:58;;;;;;;4.63;4.23;;;;;;;6.53;100.00;95592.28;7430698;19;20396;-76
2023/04/25 08:44:26;;;;;;;5.80;4.17;;;;;;;6.69;100.00;95595.16;7408130;19;20748;-74
2023/04/25 08:46:55;;;;;;;4.23;3.83;;;;;;;6.76;100.00;95595.41;7398854;19;20455;-74
2023/04/25 08:49:31;;;;;;;4.90;3.93;;;;;;;6.69;100.00;95582.03;7394622;19;20372;-74
2023/04/25 08:52:00;;;;;;;4.53;4.00;;;;;;;6.70;100.00;95571.19;7396464;19;20381;-74
2023/04/25 08:54:28;;;;;;;6.30;3.73;;;;;;;6.70;100.00;95607.19;7393014;19;20432;-74
2023/04/25 08:57:04;;;;;;;4.93;4.03;;;;;;;6.89;100.00;95594.38;7396080;19;20364;-74
2023/04/25 08:59:32;;;;;;;5.67;4.10;;;;;;;7.09;100.00;95619.91;7394373;19;20400;-74
2023/04/25 09:02:01;;;;;;;6.97;4.77;;;;;;;6.96;100.00;95615.69;7396591;19;20479;-74
2023/04/25 09:04:31;;;;;;;8.77;4.47;;;;;;;7.18;100.00;95613.81;7394133;19;20405;-74
2023/04/25 09:06:58;;;;;;;6.10;5.20;;;;;;;6.96;100.00;95612.28;7396422;19;20369;-74
2023/04/25 09:09:25;;;;;;;4.20;3.80;;;;;;;7.04;100.00;95622.72;7395254;19;20416;-74
2023/04/25 09:11:54;;;;;;;4.63;4.13;;;;;;;6.67;100.00;95634.09;7396556;19;20385;-74
2023/04/25 09:14:25;;;;;;;8.00;4.50;;;;;;;6.69;100.00;95609.06;7392430;19;20429;-74
2023/04/25 09:17:21;;;;;;;3.90;3.57;;;;;;;6.96;100.00;95607.81;7394638;19;20377;-74
2023/04/25 09:19:52;;;;;;;4.17;3.87;;;;;;;7.00;100.00;95628.94;7395969;19;20698;-74
2023/04/25 09:22:26;;;;;;;5.60;4.23;;;;;;;6.71;100.00;95633.16;7394050;19;20400;-74
2023/04/25 09:24:53;;;;;;;6.53;4.50;;;;;;;6.64;100.00;95613.72;7401342;19;20472;-74
2023/04/25 09:27:24;;;;;;;4.70;4.13;;;;;;;6.91;100.00;95636.88;7401653;19;20381;-74
2023/04/25 09:30:00;;;;;;;6.97;4.00;;;;;;;6.67;100.00;95626.19;7400653;19;20384;-74
2023/04/25 09:32:43;;;;;;;6.27;5.67;;;;;;;6.92;100.00;95648.91;7404020;19;20369;-74
2023/04/25 09:35:11;;;;;;;4.33;3.93;;;;;;;6.90;100.00;95661.63;7399848;19;20401;-74
2023/04/25 09:37:40;;;;;;;4.90;4.50;;;;;;;6.70;100.00;95643.97;7402402;19;20462;-74
2023/04/25 09:40:43;;;;;;;7.40;3.73;;;;;;;6.66;100.00;95656.19;7403040;19;20687;-74
2023/04/25 09:43:25;;;;;;;4.20;3.80;;;;;;;6.62;100.00;95656.06;7400300;19;20384;-74
2023/04/25 09:45:57;;;;;;;5.77;4.50;;;;;;;6.54;100.00;95643.72;7399830;19;20424;-74
2023/04/25 09:48:26;;;;;;;7.43;4.03;;;;;;;6.85;100.00;95638.16;7400853;19;20888;-74
2023/04/25 09:51:08;;;;;;;5.13;4.27;;;;;;;7.23;100.00;95661.72;7402620;19;20412;-74
2023/04/25 09:53:43;;;;;;;3.33;3.07;;;;;;;7.32;100.00;95653.75;7400267;19;20364;-74
2023/04/25 09:56:16;;;;;;;5.30;3.53;;;;;;;7.56;100.00;95661.75;7397590;19;21079;-74
2023/04/25 09:58:43;;;;;;;3.30;3.00;;;;;;;7.67;100.00;95646.34;7401185;19;20380;-74
2023/04/25 10:01:11;;;;;;;3.80;3.23;;;;;;;7.93;100.00;95654.75;7399772;19;20392;-74
2023/04/25 10:03:56;;;;;;;3.47;3.17;;;;;;;7.90;100.00;95660.69;7401864;19;20749;-74
2023/04/25 10:06:36;;;;;;;6.20;4.00;;;;;;;7.84;100.00;95625.13;7400589;19;20365;-74
2023/04/25 10:09:04;;;;;;;6.27;3.30;;;;;;;7.95;100.00;95646.53;7399391;19;20455;-74
2023/04/25 10:11:32;;;;;;;3.97;3.67;;;;;;;7.62;100.00;95615.75;7402053;19;20345;-74
2023/04/25 10:14:00;;;;;;;5.40;4.90;;;;;;;8.03;100.00;95655.44;7398093;19;20814;-74
2023/04/25 10:16:28;;;;;;;4.33;3.93;;;;;;;7.90;100.00;95642.25;7399644;19;20397;-74
2023/04/25 10:18:55;;;;;;;4.10;3.80;;;;;;;7.93;100.00;95640.84;7399428;19;20360;-74
2023/04/25 10:21:24;;;;;;;5.03;4.57;;;;;;;8.08;100.00;95663.13;7397666;19;21046;-74
2023/04/25 10:23:51;;;;;;;4.13;3.03;;;;;;;7.83;100.00;95654.41;7399637;19;20738;-74
2023/04/25 10:26:19;;;;;;;3.80;3.40;;;;;;;8.27;100.00;95671.28;7398400;19;20431;-74
2023/04/25 10:29:00;;;;;;;2.03;1.93;;;;;;;8.23;100.00;95673.03;7400856;19;20356;-74
2023/04/25 10:31:30;;;;;;;3.53;3.23;;;;;;;8.33;100.00;95666.56;7398177;19;20392;-74
2023/04/25 10:34:00;;;;;;;5.00;3.40;;;;;;;8.86;100.00;95663.75;7399280;19;20404;-74
2023/04/25 10:36:31;;;;;;;4.13;3.77;;;;;;;9.13;100.00;95678.13;7394285;19;20419;-74
2023/04/25 10:39:06;;;;;;;3.03;2.70;;;;;;;9.03;100.00;95656.72;7400416;19;20368;-74
2023/04/25 10:41:46;;;;;;;4.13;3.83;;;;;;;9.64;100.00;95675.03;7400040;19;20377;-74
2023/04/25 10:44:14;;;;;;;3.77;3.47;;;;;;;9.92;100.00;95662.59;7400460;19;20408;-74
2023/04/25 10:46:41;;;;;;;3.23;2.63;;;;;;;9.47;100.00;95647.03;7398873;19;20378;-74
2023/04/25 10:49:09;;;;;;;2.83;2.63;;;;;;;9.33;100.00;95641.38;7400467;19;20392;-74
2023/04/25 10:51:41;;;;;;;4.80;3.00;;;;;;;9.67;100.00;95651.38;7398906;19;20935;-74
2023/04/25 10:54:24;;;;;;;4.60;2.87;;;;;;;9.82;100.00;95647.22;7396360;19;20373;-74
2023/04/25 10:56:53;;;;;;;2.77;2.53;;;;;;;9.89;100.00;95649.31;7399140;19;20448;-74
2023/04/25 10:59:21;;;;;;;8.27;3.30;;;;;;;10.02;100.00;95656.06;7397603;19;20372;-74
2023/04/25 11:01:52;;;;;;;3.70;3.10;;;;;;;10.46;100.00;95640.94;7399510;19;20420;-74
2023/04/25 11:04:31;;;;;;;3.60;3.23;;;;;;;10.63;100.00;95653.78;7397490;19;20356;-74
2023/04/25 11:07:02;;;;;;;2.97;2.67;;;;;;;10.51;100.00;95648.59;7401081;19;20353;-74
2023/04/25 11:09:40;;;;;;;4.70;3.30;;;;;;;10.24;100.00;95649.44;7398366;19;20381;-74
2023/04/25 11:12:08;;;;;;;4.43;3.67;;;;;;;10.73;100.00;95633.25;7398487;19;20383;-74
2023/04/25 11:14:36;;;;;;;4.60;2.90;;;;;;;10.46;100.00;95664.72;7398371;19;20905;-74
2023/04/25 11:17:03;;;;;;;5.40;3.50;;;;;;;9.63;100.00;95647.09;7396694;19;20409;-74
2023/04/25 11:19:30;;;;;;;4.20;3.83;;;;;;;9.36;100.00;95649.41;7398365;19;20948;-74
2023/04/25 11:22:01;;;;;;;3.93;3.53;;;;;;;9.44;100.00;95648.47;7398298;19;20356;-74
2023/04/25 11:24:28;;;;;;;4.70;3.93;;;;;;;9.01;100.00;95659.69;7398291;19;20417;-74
2023/04/25 11:26:55;;;;;;;5.60;4.47;;;;;;;10.02;100.00;95662.09;7396835;19;20401;-74
2023/04/25 11:29:23;;;;;;;2.50;2.30;;;;;;;10.49;100.00;95629.69;7395790;19;20420;-74
2023/04/25 11:31:50;;;;;;;4.30;2.40;;;;;;;10.40;100.00;95667.94;7398523;19;20460;-74
2023/04/25 11:34:18;;;;;;;2.90;2.60;;;;;;;10.34;100.00;95654.22;7395679;19;20897;-74
2023/04/25 11:36:46;;;;;;;3.70;3.13;;;;;;;10.10;100.00;95668.31;7394216;19;20963;-74
2023/04/25 11:39:13;;;;;;;4.70;3.47;;;;;;;8.67;100.00;95616.09;7398264;19;20900;-74
2023/04/25 11:41:41;;;;;;;4.03;3.50;;;;;;;8.62;100.00;95666.41;7396728;19;20390;-74
2023/04/25 11:44:11;;;;;;;4.33;3.63;;;;;;;8.13;100.00;95633.94;7398646;19;20365;-74
2023/04/25 11:46:38;;;;;;;3.60;3.30;;;;;;;8.49;100.00;95667.50;7395387;19;20390;-74
2023/04/25 11:49:05;;;;;;;5.80;4.20;;;;;;;8.50;100.00;95655.84;7398420;19;20408;-74